Time;durP1;ratioP1;P1;durP2;ratioP2;P2;SDS_P1;SDS_P2;PMS_P1;PMS_P2;Temp;Humidity;BMP_temperature;BMP_pressure;BME280_temperature;BME280_humidity;BME280_pressure;Samples;Min_cycle;Max_cycle;Signal;HPM_P1;HPM_P2
2022/04/12 00:00:59;;;;;;;10.88;4.28;;;;;;;;;;5050522;28;20029;-69
2022/04/12 00:03:25;;;;;;;7.32;4.20;;;;;;;;;;5050080;28;20041;-70
2022/04/12 00:05:51;;;;;;;8.43;4.22;;;;;;;;;;5051602;28;20024;-69
2022/04/12 00:08:17;;;;;;;7.18;4.13;;;;;;;;;;5051894;28;20711;-70
2022/04/12 00:10:43;;;;;;;7.97;4.35;;;;;;;;;;5052187;28;20497;-70
2022/04/12 00:13:08;;;;;;;7.30;4.15;;;;;;;;;;5052804;28;20032;-70
2022/04/12 00:15:34;;;;;;;12.00;4.20;;;;;;;;;;5052510;28;20035;-70
2022/04/12 00:20:45;;;;;;;7.22;4.30;;;;;;;;;;5052687;28;20033;-70
2022/04/12 00:23:12;;;;;;;7.80;4.30;;;;;;;;;;5052626;28;20028;-70
2022/04/12 00:25:38;;;;;;;8.45;4.32;;;;;;;;;;5052276;28;20021;-70
2022/04/12 00:28:05;;;;;;;7.68;4.00;;;;;;;;;;5052031;28;20025;-70
2022/04/12 00:30:31;;;;;;;7.38;4.18;;;;;;;;;;5052434;28;20025;-70
2022/04/12 00:32:57;;;;;;;9.05;5.00;;;;;;;;;;5053055;28;20128;-70
2022/04/12 00:35:24;;;;;;;9.10;5.00;;;;;;;;;;5052260;28;20056;-70
2022/04/12 00:37:50;;;;;;;10.93;4.85;;;;;;;;;;5052253;28;20036;-69
2022/04/12 00:40:18;;;;;;;8.43;4.57;;;;;;;;;;5052967;28;20044;-69
2022/04/12 00:42:45;;;;;;;10.10;4.50;;;;;;;;;;5051880;28;20486;-71
2022/04/12 00:45:11;;;;;;;8.50;4.22;;;;;;;;;;5051970;28;20040;-69
2022/04/12 00:47:39;;;;;;;8.25;4.43;;;;;;;;;;5051650;28;20025;-70
2022/04/12 00:50:07;;;;;;;9.05;4.40;;;;;;;;;;5052454;28;20025;-70
2022/04/12 00:52:49;;;;;;;8.88;4.25;;;;;;;;;;5052712;28;20024;-70
2022/04/12 00:55:15;;;;;;;8.13;4.05;;;;;;;;;;5050921;28;20028;-70
2022/04/12 00:57:41;;;;;;;9.50;4.22;;;;;;;;;;5050631;28;20035;-69
2022/04/12 01:00:09;;;;;;;8.98;4.72;;;;;;;;;;5050987;28;20029;-70
2022/04/12 01:02:35;;;;;;;7.70;4.30;;;;;;;;;;5051315;28;20024;-70
2022/04/12 01:05:03;;;;;;;6.85;4.03;;;;;;;;;;5050757;28;20029;-70
2022/04/12 01:07:30;;;;;;;8.10;4.07;;;;;;;;;;5050477;28;20405;-70
2022/04/12 01:09:58;;;;;;;8.38;4.00;;;;;;;;;;5050984;28;20040;-70
2022/04/12 01:12:26;;;;;;;9.20;4.35;;;;;;;;;;5049078;28;20031;-69
2022/04/12 01:14:52;;;;;;;8.40;4.25;;;;;;;;;;5050473;28;20089;-70
2022/04/12 01:17:18;;;;;;;9.93;4.25;;;;;;;;;;5050554;28;20120;-69
2022/04/12 01:19:44;;;;;;;7.78;4.03;;;;;;;;;;5050788;28;20121;-69
2022/04/12 01:22:16;;;;;;;7.88;3.97;;;;;;;;;;5051113;28;20061;-69
2022/04/12 01:24:42;;;;;;;8.55;4.18;;;;;;;;;;5050452;28;20033;-70
2022/04/12 01:27:08;;;;;;;7.10;4.15;;;;;;;;;;5050018;28;20025;-71
2022/04/12 01:29:35;;;;;;;7.97;3.97;;;;;;;;;;5050745;28;20059;-71
2022/04/12 01:32:07;;;;;;;7.60;4.10;;;;;;;;;;5050635;28;20124;-71
2022/04/12 01:34:35;;;;;;;7.28;4.10;;;;;;;;;;5050495;28;20025;-71
2022/04/12 01:37:02;;;;;;;7.65;4.22;;;;;;;;;;5048436;28;20044;-71
2022/04/12 01:39:29;;;;;;;7.20;4.20;;;;;;;;;;5050149;28;20517;-70
2022/04/12 01:41:55;;;;;;;10.25;4.03;;;;;;;;;;5047874;28;20021;-70
2022/04/12 01:44:21;;;;;;;9.45;4.20;;;;;;;;;;5046831;28;20504;-69
2022/04/12 01:46:47;;;;;;;7.15;4.07;;;;;;;;;;5048252;28;20033;-69
2022/04/12 01:49:13;;;;;;;10.32;4.10;;;;;;;;;;5048668;28;20509;-72
2022/04/12 01:51:39;;;;;;;7.57;4.60;;;;;;;;;;5049009;28;20100;-71
2022/04/12 01:54:05;;;;;;;8.40;4.15;;;;;;;;;;5012199;28;1049818;-71
2022/04/12 01:56:34;;;;;;;8.60;4.55;;;;;;;;;;5049252;28;20056;-71
2022/04/12 01:59:02;;;;;;;8.18;4.20;;;;;;;;;;5053961;28;20028;-71
2022/04/12 02:01:28;;;;;;;10.02;4.18;;;;;;;;;;5070275;28;20047;-69
2022/04/12 02:03:57;;;;;;;9.38;4.60;;;;;;;;;;5070716;28;20382;-69
2022/04/12 02:06:23;;;;;;;10.55;4.47;;;;;;;;;;5070373;28;20028;-69
2022/04/12 02:08:49;;;;;;;10.63;4.53;;;;;;;;;;5070201;28;20489;-71
2022/04/12 02:11:18;;;;;;;8.07;4.55;;;;;;;;;;5070524;28;20052;-71
2022/04/12 02:13:44;;;;;;;7.30;4.05;;;;;;;;;;5070565;28;20028;-68
2022/04/12 02:16:10;;;;;;;9.57;4.18;;;;;;;;;;5068698;28;20070;-71
2022/04/12 02:18:36;;;;;;;9.32;4.43;;;;;;;;;;5070020;28;20032;-71
2022/04/12 02:21:02;;;;;;;7.38;3.88;;;;;;;;;;5070253;28;20059;-70
2022/04/12 02:23:27;;;;;;;11.45;4.28;;;;;;;;;;5069944;28;20436;-70
2022/04/12 02:25:53;;;;;;;7.85;4.25;;;;;;;;;;5070116;28;20048;-70
2022/04/12 02:28:19;;;;;;;11.93;4.30;;;;;;;;;;5069891;28;20059;-70
2022/04/12 02:30:45;;;;;;;11.07;4.55;;;;;;;;;;5070118;28;20112;-71
2022/04/12 02:33:11;;;;;;;10.55;4.50;;;;;;;;;;5070096;28;20025;-70
2022/04/12 02:35:37;;;;;;;9.50;4.70;;;;;;;;;;5068340;28;20036;-70
2022/04/12 02:38:03;;;;;;;7.03;4.28;;;;;;;;;;5069675;28;20030;-69
2022/04/12 02:40:29;;;;;;;9.18;4.32;;;;;;;;;;5069977;28;20027;-69
2022/04/12 02:42:55;;;;;;;12.40;4.63;;;;;;;;;;5068455;28;20090;-70
2022/04/12 02:45:20;;;;;;;9.32;4.53;;;;;;;;;;5069630;28;20056;-70
2022/04/12 02:47:46;;;;;;;8.60;4.15;;;;;;;;;;5069459;28;20037;-71
2022/04/12 02:50:12;;;;;;;8.45;4.13;;;;;;;;;;5060527;28;20610;-70
2022/04/12 02:52:38;;;;;;;8.45;4.60;;;;;;;;;;5048472;28;20047;-70
2022/04/12 02:55:05;;;;;;;7.53;4.13;;;;;;;;;;5057847;22;20084;-74
2022/04/12 02:57:30;;;;;;;9.63;4.03;;;;;;;;;;5028030;28;20040;-74
2022/04/12 02:59:56;;;;;;;10.50;4.25;;;;;;;;;;5029402;28;20057;-75
2022/04/12 03:02:22;;;;;;;7.20;4.25;;;;;;;;;;5029465;28;20025;-74
2022/04/12 03:04:48;;;;;;;11.05;4.53;;;;;;;;;;5034869;28;20518;-74
2022/04/12 03:07:14;;;;;;;8.52;4.35;;;;;;;;;;5031027;28;20119;-74
2022/04/12 03:09:41;;;;;;;8.98;4.43;;;;;;;;;;5049052;28;20276;-74
2022/04/12 03:12:08;;;;;;;12.25;4.20;;;;;;;;;;5013658;28;20045;-75
2022/04/12 03:14:33;;;;;;;11.00;4.63;;;;;;;;;;5029648;28;20029;-75
2022/04/12 03:16:59;;;;;;;9.90;4.85;;;;;;;;;;5029023;28;20064;-74
2022/04/12 03:19:26;;;;;;;9.05;4.43;;;;;;;;;;5029437;28;20077;-75
2022/04/12 03:21:52;;;;;;;9.48;4.60;;;;;;;;;;5029435;28;20030;-74
2022/04/12 03:24:17;;;;;;;11.30;5.55;;;;;;;;;;5029763;28;20047;-74
2022/04/12 03:26:43;;;;;;;9.20;4.70;;;;;;;;;;5029455;28;20053;-75
2022/04/12 03:29:09;;;;;;;10.02;4.90;;;;;;;;;;5011638;28;20107;-74
2022/04/12 03:31:35;;;;;;;8.30;4.72;;;;;;;;;;5029773;28;20053;-75
2022/04/12 03:34:01;;;;;;;9.13;4.30;;;;;;;;;;5029971;28;20371;-74
2022/04/12 03:36:27;;;;;;;8.18;4.07;;;;;;;;;;5033610;28;20028;-74
2022/04/12 03:38:53;;;;;;;8.75;4.78;;;;;;;;;;5033396;28;20107;-74
2022/04/12 03:41:22;;;;;;;10.45;4.38;;;;;;;;;;5033657;28;20109;-75
2022/04/12 03:43:52;;;;;;;10.55;4.85;;;;;;;;;;5045459;28;20389;-75
2022/04/12 03:46:18;;;;;;;11.02;4.50;;;;;;;;;;5053191;28;20032;-75
2022/04/12 03:48:45;;;;;;;9.73;5.10;;;;;;;;;;5053173;28;20025;-75
2022/04/12 03:51:12;;;;;;;11.90;4.80;;;;;;;;;;5053433;28;20047;-75
2022/04/12 03:53:38;;;;;;;9.25;4.53;;;;;;;;;;5053127;28;20462;-74
2022/04/12 03:56:07;;;;;;;10.13;5.30;;;;;;;;;;5052723;28;20036;-74
2022/04/12 03:58:37;;;;;;;13.98;4.43;;;;;;;;;;5052610;28;20500;-74
2022/04/12 04:01:04;;;;;;;13.63;5.00;;;;;;;;;;5051959;28;20048;-74
2022/04/12 04:03:30;;;;;;;9.68;4.85;;;;;;;;;;5053351;28;20443;-75
2022/04/12 04:05:56;;;;;;;9.38;4.93;;;;;;;;;;5052109;28;20497;-74
2022/04/12 04:08:23;;;;;;;9.50;4.85;;;;;;;;;;5052574;28;20029;-74
2022/04/12 04:10:49;;;;;;;11.10;5.00;;;;;;;;;;5052708;28;20029;-75
2022/04/12 04:13:15;;;;;;;10.27;5.05;;;;;;;;;;5052970;28;20044;-73
2022/04/12 04:15:41;;;;;;;9.70;5.60;;;;;;;;;;5034506;28;20125;-74
2022/04/12 04:18:08;;;;;;;11.85;5.90;;;;;;;;;;5052368;28;20025;-75
2022/04/12 04:20:34;;;;;;;13.98;5.05;;;;;;;;;;5052734;28;20029;-75
2022/04/12 04:23:00;;;;;;;11.00;5.00;;;;;;;;;;5052518;28;20033;-75
2022/04/12 04:25:26;;;;;;;10.18;5.55;;;;;;;;;;5052159;28;20025;-75
2022/04/12 04:27:52;;;;;;;10.68;5.72;;;;;;;;;;5033831;28;20593;-74
2022/04/12 04:30:19;;;;;;;9.05;5.40;;;;;;;;;;5051972;28;20047;-75
2022/04/12 04:32:46;;;;;;;10.68;5.20;;;;;;;;;;5033234;28;20021;-74
2022/04/12 04:35:12;;;;;;;11.00;5.30;;;;;;;;;;5031925;28;20379;-74
2022/04/12 04:37:46;;;;;;;13.70;5.80;;;;;;;;;;5031809;28;20143;-74
2022/04/12 04:40:20;;;;;;;11.32;5.63;;;;;;;;;;5032326;28;20026;-73
2022/04/12 04:42:47;;;;;;;13.45;5.28;;;;;;;;;;5013992;28;20040;-74
2022/04/12 04:45:13;;;;;;;10.70;5.53;;;;;;;;;;5034326;28;20204;-74
2022/04/12 04:47:54;;;;;;;14.60;5.88;;;;;;;;;;5033562;28;20044;-75
2022/04/12 04:50:23;;;;;;;11.57;5.22;;;;;;;;;;5042227;28;20030;-74
2022/04/12 04:52:49;;;;;;;10.52;5.28;;;;;;;;;;5045977;28;20033;-74
2022/04/12 04:55:16;;;;;;;11.40;5.30;;;;;;;;;;5051162;28;20029;-73
2022/04/12 04:57:46;;;;;;;13.38;6.07;;;;;;;;;;5048559;28;20304;-74
2022/04/12 05:00:17;;;;;;;13.60;5.50;;;;;;;;;;5037588;28;20037;-75
2022/04/12 05:02:50;;;;;;;12.98;5.85;;;;;;;;;;5045257;28;20112;-75
2022/04/12 05:05:17;;;;;;;11.63;5.55;;;;;;;;;;5038646;28;20029;-74
2022/04/12 05:07:45;;;;;;;14.13;5.65;;;;;;;;;;5041480;28;20128;-74
2022/04/12 05:10:16;;;;;;;12.93;5.93;;;;;;;;;;5031042;28;20025;-75
2022/04/12 05:12:43;;;;;;;11.50;5.78;;;;;;;;;;5048714;28;20033;-74
2022/04/12 05:15:09;;;;;;;10.02;5.45;;;;;;;;;;5041328;28;20486;-74
2022/04/12 05:17:35;;;;;;;18.50;5.95;;;;;;;;;;5051779;28;20385;-74
2022/04/12 05:20:02;;;;;;;20.58;6.20;;;;;;;;;;5050965;28;20029;-74
2022/04/12 05:22:28;;;;;;;14.20;5.50;;;;;;;;;;5034231;28;20032;-74
2022/04/12 05:24:56;;;;;;;12.57;6.00;;;;;;;;;;5046115;28;20025;-74
2022/04/12 05:27:22;;;;;;;12.02;5.57;;;;;;;;;;5039318;28;20401;-75
2022/04/12 05:29:51;;;;;;;11.48;5.78;;;;;;;;;;5050745;28;20097;-74
2022/04/12 05:32:17;;;;;;;10.10;5.85;;;;;;;;;;5016215;28;20490;-74
2022/04/12 05:34:46;;;;;;;17.48;5.20;;;;;;;;;;5041367;28;20112;-72
2022/04/12 05:37:15;;;;;;;12.13;5.80;;;;;;;;;;5038638;28;20028;-73
2022/04/12 05:39:41;;;;;;;10.35;5.57;;;;;;;;;;5034261;28;20048;-74
2022/04/12 05:42:07;;;;;;;10.85;5.57;;;;;;;;;;5021101;28;20061;-75
2022/04/12 05:44:33;;;;;;;10.50;5.72;;;;;;;;;;5050457;28;20490;-75
2022/04/12 05:47:03;;;;;;;13.57;5.95;;;;;;;;;;5025767;28;20105;-74
2022/04/12 05:49:30;;;;;;;9.20;4.97;;;;;;;;;;5042230;28;20040;-74
2022/04/12 05:51:56;;;;;;;12.68;5.47;;;;;;;;;;5041123;28;20466;-74
2022/04/12 05:54:23;;;;;;;12.10;5.45;;;;;;;;;;5036245;28;20394;-74
2022/04/12 05:56:49;;;;;;;11.43;5.50;;;;;;;;;;5043846;28;20392;-74
2022/04/12 05:59:35;;;;;;;11.93;5.72;;;;;;;;;;5042226;28;20036;-73
2022/04/12 06:02:01;;;;;;;14.73;5.40;;;;;;;;;;5038708;28;20044;-74
2022/04/12 06:04:35;;;;;;;10.18;5.05;;;;;;;;;;5041933;28;20112;-74
2022/04/12 06:07:10;;;;;;;10.23;5.28;;;;;;;;;;5020507;28;20045;-75
2022/04/12 06:10:11;;;;;;;8.95;5.35;;;;;;;;;;5023203;28;20037;-73
2022/04/12 06:12:32;;;;;;;11.32;4.93;;;;;;;;;;5033700;28;20510;-73
2022/04/12 06:14:58;;;;;;;10.55;5.63;;;;;;;;;;5044562;28;20025;-73
2022/04/12 06:17:32;;;;;;;12.65;5.68;;;;;;;;;;5038341;28;20083;-72
2022/04/12 06:20:08;;;;;;;12.20;5.18;;;;;;;;;;5036738;28;20053;-75
2022/04/12 06:22:35;;;;;;;8.38;5.40;;;;;;;;;;5029558;28;20037;-74
2022/04/12 06:25:01;;;;;;;11.23;5.63;;;;;;;;;;5040490;28;20616;-74
2022/04/12 06:27:39;;;;;;;14.15;5.10;;;;;;;;;;5021847;28;20049;-74
2022/04/12 06:30:06;;;;;;;10.68;5.55;;;;;;;;;;5038290;28;20036;-74
2022/04/12 06:32:33;;;;;;;10.57;5.45;;;;;;;;;;5014680;28;20037;-74
2022/04/12 06:34:59;;;;;;;8.52;5.13;;;;;;;;;;5034272;28;20029;-74
2022/04/12 06:37:26;;;;;;;9.00;4.95;;;;;;;;;;5030355;28;20389;-75
2022/04/12 06:39:53;;;;;;;12.48;5.75;;;;;;;;;;5041858;28;20599;-74
2022/04/12 06:42:19;;;;;;;9.30;5.60;;;;;;;;;;5032993;28;20048;-74
2022/04/12 06:44:45;;;;;;;16.17;5.63;;;;;;;;;;5047073;28;20435;-73
2022/04/12 06:47:14;;;;;;;9.13;5.15;;;;;;;;;;5032057;28;20043;-77
2022/04/12 06:49:41;;;;;;;9.80;5.57;;;;;;;;;;5048499;28;20036;-74
2022/04/12 06:52:07;;;;;;;11.15;5.25;;;;;;;;;;5035543;28;20025;-75
2022/04/12 06:54:33;;;;;;;10.60;5.45;;;;;;;;;;5044618;28;20041;-76
2022/04/12 06:56:59;;;;;;;11.20;5.47;;;;;;;;;;5018677;28;20265;-76
2022/04/12 06:59:25;;;;;;;11.68;5.72;;;;;;;;;;5035711;28;20049;-76
2022/04/12 07:01:51;;;;;;;10.07;5.53;;;;;;;;;;5021212;28;20376;-76
2022/04/12 07:04:17;;;;;;;11.88;5.90;;;;;;;;;;5037471;28;20059;-80
2022/04/12 07:06:43;;;;;;;11.48;5.68;;;;;;;;;;5022640;28;20401;-81
2022/04/12 07:09:13;;;;;;;10.30;5.85;;;;;;;;;;5016597;28;20065;-83
2022/04/12 07:11:38;;;;;;;8.40;4.78;;;;;;;;;;5039854;28;20029;-82
2022/04/12 07:14:04;;;;;;;8.77;5.40;;;;;;;;;;5022987;28;20094;-85
2022/04/12 07:16:30;;;;;;;10.85;5.75;;;;;;;;;;5023077;28;20041;-74
2022/04/12 07:18:56;;;;;;;12.48;5.95;;;;;;;;;;5044357;28;20346;-76
2022/04/12 07:21:27;;;;;;;9.50;5.22;;;;;;;;;;5041532;28;20063;-77
2022/04/12 07:23:53;;;;;;;;;;;;;;;;;;5035877;28;20025;-76
2022/04/12 07:26:19;;;;;;;12.55;5.60;;;;;;;;;;5035936;28;19913;-77
2022/04/12 07:28:44;;;;;;;10.57;5.38;;;;;;;;;;5038767;28;20256;-77
2022/04/12 07:31:10;;;;;;;10.43;5.18;;;;;;;;;;5039093;28;20066;-76
2022/04/12 07:33:36;;;;;;;13.95;5.50;;;;;;;;;;5019409;28;20069;-77
2022/04/12 07:36:02;;;;;;;11.30;5.88;;;;;;;;;;5039181;28;20108;-78
2022/04/12 07:38:28;;;;;;;9.25;5.22;;;;;;;;;;5035005;28;20032;-83
2022/04/12 07:40:54;;;;;;;11.05;5.68;;;;;;;;;;5038839;28;20120;-81
2022/04/12 07:43:20;;;;;;;10.80;5.57;;;;;;;;;;5041533;28;20039;-88
2022/04/12 07:45:46;;;;;;;9.35;5.30;;;;;;;;;;5039554;28;20052;-88
2022/04/12 07:48:12;;;;;;;11.05;6.18;;;;;;;;;;5039251;28;20482;-84
2022/04/12 07:50:39;;;;;;;18.15;6.25;;;;;;;;;;5041594;28;20037;-86
2022/04/12 07:53:05;;;;;;;9.52;5.53;;;;;;;;;;5041715;28;20028;-84
2022/04/12 07:55:31;;;;;;;11.85;5.78;;;;;;;;;;5040148;28;20034;-84
2022/04/12 07:57:57;;;;;;;10.48;5.38;;;;;;;;;;5038777;28;20036;-86
2022/04/12 08:00:23;;;;;;;11.55;5.95;;;;;;;;;;5038630;28;20447;-84
2022/04/12 08:02:50;;;;;;;10.27;5.97;;;;;;;;;;5037099;28;20153;-87
2022/04/12 08:05:16;;;;;;;11.70;5.80;;;;;;;;;;5040984;28;20025;-79
2022/04/12 08:07:47;;;;;;;11.13;6.00;;;;;;;;;;5039359;28;20033;-78
2022/04/12 08:10:15;;;;;;;8.85;5.72;;;;;;;;;;5043541;28;20025;-82
2022/04/12 08:12:42;;;;;;;11.25;5.78;;;;;;;;;;5039420;28;20402;-86
2022/04/12 08:15:12;;;;;;;9.63;5.63;;;;;;;;;;5040419;28;20378;-85
2022/04/12 08:17:39;;;;;;;10.68;5.95;;;;;;;;;;5041042;28;20401;-84
2022/04/12 08:20:06;;;;;;;13.13;6.07;;;;;;;;;;5040437;28;20502;-83
2022/04/12 08:22:32;;;;;;;13.30;5.60;;;;;;;;;;5040637;28;20032;-82
2022/04/12 08:24:59;;;;;;;9.07;5.65;;;;;;;;;;5043435;28;20036;-83
2022/04/12 08:27:26;;;;;;;10.80;6.32;;;;;;;;;;5044616;28;20024;-82
2022/04/12 08:29:52;;;;;;;11.25;5.40;;;;;;;;;;5040109;28;20486;-87
2022/04/12 08:32:18;;;;;;;13.38;7.20;;;;;;;;;;5043152;28;20032;-89
2022/04/12 08:34:44;;;;;;;12.93;8.55;;;;;;;;;;5041899;28;20025;-87
2022/04/12 08:37:11;;;;;;;10.88;6.00;;;;;;;;;;5020474;28;20033;-87
2022/04/12 08:39:37;;;;;;;10.93;5.90;;;;;;;;;;5044025;28;20029;-80
2022/04/12 08:42:04;;;;;;;9.68;5.57;;;;;;;;;;5046351;28;20028;-85
2022/04/12 08:44:32;;;;;;;10.30;5.60;;;;;;;;;;5040252;28;20048;-84
2022/04/12 08:47:01;;;;;;;9.25;5.28;;;;;;;;;;5043254;28;20529;-84
2022/04/12 08:49:28;;;;;;;10.90;5.93;;;;;;;;;;5045746;28;20120;-89
2022/04/12 08:51:55;;;;;;;12.80;5.63;;;;;;;;;;5045630;28;20024;-87
2022/04/12 08:54:22;;;;;;;9.68;5.53;;;;;;;;;;5025923;28;20045;-86
2022/04/12 08:56:50;;;;;;;10.68;5.68;;;;;;;;;;5038435;28;20037;-80
2022/04/12 08:59:17;;;;;;;13.45;6.28;;;;;;;;;;5024132;28;20109;-85
2022/04/12 09:01:43;;;;;;;13.38;8.77;;;;;;;;;;5043278;28;20036;-78
2022/04/12 09:04:10;;;;;;;9.48;5.07;;;;;;;;;;5043888;28;20032;-83
2022/04/12 09:06:54;;;;;;;9.73;5.28;;;;;;;;;;5041650;28;20036;-75
2022/04/12 09:09:28;;;;;;;11.00;5.20;;;;;;;;;;5041948;28;20025;-74
2022/04/12 09:12:06;;;;;;;11.90;5.60;;;;;;;;;;5037086;28;20105;-70
2022/04/12 09:14:36;;;;;;;14.10;8.45;;;;;;;;;;5039819;28;20025;-71
2022/04/12 09:17:03;;;;;;;12.10;6.60;;;;;;;;;;5040026;28;20051;-65
2022/04/12 09:19:43;;;;;;;10.15;5.88;;;;;;;;;;5043568;28;20028;-65
2022/04/12 09:22:11;;;;;;;14.55;5.82;;;;;;;;;;5039396;28;20037;-64
2022/04/12 09:24:42;;;;;;;11.07;5.65;;;;;;;;;;5040983;28;20410;-67
2022/04/12 09:27:14;;;;;;;10.50;5.35;;;;;;;;;;5040160;28;20041;-69
2022/04/12 09:29:51;;;;;;;10.18;5.65;;;;;;;;;;5039160;28;20033;-65
2022/04/12 09:32:28;;;;;;;10.80;5.13;;;;;;;;;;5039256;28;20467;-66
2022/04/12 09:34:56;;;;;;;14.18;5.18;;;;;;;;;;5033209;28;20045;-65
2022/04/12 09:37:27;;;;;;;11.02;5.32;;;;;;;;;;5038370;28;20044;-65
2022/04/12 09:39:55;;;;;;;12.60;5.45;;;;;;;;;;5040568;28;20021;-64
2022/04/12 09:42:35;;;;;;;11.25;5.10;;;;;;;;;;5047717;28;20025;-64
2022/04/12 09:45:05;;;;;;;;;;;;;;;;;;5039484;28;20117;-64
2022/04/12 09:47:32;;;;;;;10.50;4.90;;;;;;;;;;5040397;28;19932;-65
2022/04/12 09:49:59;;;;;;;9.10;5.47;;;;;;;;;;5036712;28;20391;-64
2022/04/12 09:52:25;;;;;;;9.00;4.88;;;;;;;;;;5046947;28;20040;-65
2022/04/12 09:54:51;;;;;;;10.38;5.43;;;;;;;;;;5034768;28;20412;-74
2022/04/12 09:57:17;;;;;;;15.77;5.30;;;;;;;;;;5042047;28;20037;-74
2022/04/12 09:59:44;;;;;;;10.02;5.10;;;;;;;;;;5042022;28;20044;-74
2022/04/12 10:02:11;;;;;;;11.38;5.40;;;;;;;;;;5017275;28;20044;-74
2022/04/12 10:04:38;;;;;;;8.63;4.50;;;;;;;;;;5049320;28;20025;-74
2022/04/12 10:07:05;;;;;;;11.13;4.78;;;;;;;;;;5044006;28;20482;-74
2022/04/12 10:09:36;;;;;;;9.25;4.45;;;;;;;;;;5021727;28;20041;-74
2022/04/12 10:12:04;;;;;;;8.45;4.45;;;;;;;;;;5044376;28;20042;-71
2022/04/12 10:14:31;;;;;;;11.48;4.63;;;;;;;;;;5033440;28;20037;-80
2022/04/12 10:16:58;;;;;;;8.73;4.40;;;;;;;;;;5035712;28;20124;-76
2022/04/12 10:19:24;;;;;;;8.88;3.88;;;;;;;;;;5023197;28;20057;-75
2022/04/12 10:21:50;;;;;;;7.80;3.85;;;;;;;;;;5042255;28;20029;-72
2022/04/12 10:24:18;;;;;;;8.45;4.07;;;;;;;;;;5049918;28;20055;-74
2022/04/12 10:26:45;;;;;;;6.15;3.72;;;;;;;;;;5033038;28;20032;-76
2022/04/12 10:29:13;;;;;;;6.65;4.13;;;;;;;;;;5042812;28;20029;-75
2022/04/12 10:31:54;;;;;;;7.18;3.83;;;;;;;;;;5040568;28;20036;-74
2022/04/12 10:34:20;;;;;;;6.80;3.80;;;;;;;;;;5049920;28;20032;-74
2022/04/12 10:36:55;;;;;;;9.32;4.10;;;;;;;;;;5035259;28;20057;-75
2022/04/12 10:39:31;;;;;;;9.20;5.15;;;;;;;;;;5047513;28;20568;-75
2022/04/12 10:42:01;;;;;;;6.47;3.80;;;;;;;;;;5036316;28;20033;-75
2022/04/12 10:44:27;;;;;;;7.25;3.70;;;;;;;;;;5036919;28;20033;-75
2022/04/12 10:46:56;;;;;;;7.68;3.88;;;;;;;;;;5039752;28;20075;-75
2022/04/12 10:49:22;;;;;;;7.28;3.83;;;;;;;;;;5037785;28;20494;-75
2022/04/12 10:52:00;;;;;;;7.18;4.07;;;;;;;;;;5043663;28;20125;-75
2022/04/12 10:54:34;;;;;;;6.88;3.70;;;;;;;;;;5037569;28;20040;-76
2022/04/12 10:57:18;;;;;;;5.93;3.60;;;;;;;;;;5040324;28;20051;-75
2022/04/12 11:00:09;;;;;;;8.75;3.58;;;;;;;;;;5040509;28;20059;-76
2022/04/12 11:02:54;;;;;;;7.55;3.85;;;;;;;;;;5040651;28;20458;-75
2022/04/12 11:05:32;;;;;;;7.60;3.80;;;;;;;;;;5050688;28;20029;-76
2022/04/12 11:07:59;;;;;;;5.97;3.65;;;;;;;;;;5047971;28;20276;-76
2022/04/12 11:10:25;;;;;;;10.13;3.80;;;;;;;;;;5055821;28;20044;-75
2022/04/12 11:13:09;;;;;;;6.40;3.60;;;;;;;;;;5023505;28;20033;-76
2022/04/12 11:15:37;;;;;;;7.50;4.18;;;;;;;;;;5038729;28;20032;-74
2022/04/12 11:18:05;;;;;;;7.70;3.60;;;;;;;;;;5037432;28;20033;-74
2022/04/12 11:20:31;;;;;;;7.78;3.88;;;;;;;;;;5039112;28;20024;-75
2022/04/12 11:22:59;;;;;;;6.82;3.90;;;;;;;;;;5038141;28;20025;-73
2022/04/12 11:25:26;;;;;;;7.13;3.50;;;;;;;;;;5045367;28;20017;-75
2022/04/12 11:28:01;;;;;;;8.00;4.05;;;;;;;;;;5048216;28;20474;-75
2022/04/12 11:30:28;;;;;;;6.70;3.80;;;;;;;;;;5049232;28;20063;-74
2022/04/12 11:32:55;;;;;;;6.97;3.78;;;;;;;;;;5039484;28;20406;-74
2022/04/12 11:35:25;;;;;;;7.45;3.75;;;;;;;;;;5044369;28;20029;-72
2022/04/12 11:37:51;;;;;;;6.90;3.67;;;;;;;;;;5032221;28;20100;-76
2022/04/12 11:40:17;;;;;;;6.50;3.55;;;;;;;;;;5030471;28;20132;-73
2022/04/12 11:42:43;;;;;;;12.23;3.92;;;;;;;;;;5037285;28;20530;-75
2022/04/12 11:45:11;;;;;;;8.00;3.53;;;;;;;;;;5044091;28;20021;-75
2022/04/12 11:47:44;;;;;;;6.38;3.85;;;;;;;;;;5034596;28;20024;-75
2022/04/12 11:50:17;;;;;;;7.07;3.50;;;;;;;;;;5042213;28;20032;-75
2022/04/12 11:52:45;;;;;;;7.43;3.60;;;;;;;;;;5041974;28;20810;-74
2022/04/12 11:55:12;;;;;;;6.43;3.70;;;;;;;;;;5014367;28;20041;-75
2022/04/12 11:57:38;;;;;;;11.65;3.95;;;;;;;;;;5049048;28;20029;-75
2022/04/12 12:00:04;;;;;;;10.43;3.83;;;;;;;;;;5039218;28;20386;-75
2022/04/12 12:02:34;;;;;;;8.15;3.78;;;;;;;;;;5052741;28;20028;-74
2022/04/12 12:05:00;;;;;;;7.60;3.50;;;;;;;;;;5049564;28;20029;-74
2022/04/12 12:07:27;;;;;;;7.85;3.38;;;;;;;;;;5035855;28;20037;-75
2022/04/12 12:09:58;;;;;;;7.30;3.40;;;;;;;;;;5047791;28;20513;-75
2022/04/12 12:12:31;;;;;;;8.40;3.30;;;;;;;;;;5041693;28;20052;-74
2022/04/12 12:14:57;;;;;;;8.13;3.88;;;;;;;;;;5038892;28;20395;-72
2022/04/12 12:17:25;;;;;;;9.15;3.97;;;;;;;;;;5049203;28;20040;-74
2022/04/12 12:19:51;;;;;;;11.05;3.60;;;;;;;;;;5048362;28;20021;-75
2022/04/12 12:22:17;;;;;;;7.05;3.80;;;;;;;;;;5040438;28;20379;-75
2022/04/12 12:24:50;;;;;;;7.60;3.60;;;;;;;;;;5052151;28;20040;-75
2022/04/12 12:27:26;;;;;;;7.65;3.60;;;;;;;;;;5039248;28;20025;-75
2022/04/12 12:29:52;;;;;;;6.57;3.60;;;;;;;;;;5045003;28;20032;-74
2022/04/12 12:32:17;;;;;;;7.47;3.50;;;;;;;;;;5039285;28;20056;-74
2022/04/12 12:34:45;;;;;;;7.05;3.40;;;;;;;;;;5043539;28;20064;-75
2022/04/12 12:37:11;;;;;;;6.15;3.03;;;;;;;;;;5036397;28;20030;-73
2022/04/12 12:39:40;;;;;;;6.40;3.10;;;;;;;;;;5047116;28;20032;-77
2022/04/12 12:42:07;;;;;;;8.23;3.83;;;;;;;;;;5039039;28;20355;-74
2022/04/12 12:44:35;;;;;;;5.85;3.15;;;;;;;;;;5047458;28;20033;-74
2022/04/12 12:47:04;;;;;;;6.70;3.10;;;;;;;;;;5022558;28;20045;-74
2022/04/12 12:49:38;;;;;;;6.07;3.45;;;;;;;;;;5051671;28;20036;-74
2022/04/12 12:52:10;;;;;;;6.82;3.10;;;;;;;;;;5038167;28;20673;-74
2022/04/12 12:54:36;;;;;;;5.53;3.00;;;;;;;;;;5040558;28;20691;-74
2022/04/12 12:57:05;;;;;;;6.28;3.10;;;;;;;;;;5045486;28;20544;-74
2022/04/12 12:59:35;;;;;;;6.43;3.38;;;;;;;;;;5035145;28;20382;-75
2022/04/12 13:02:12;;;;;;;6.95;3.38;;;;;;;;;;5045826;28;20493;-75
2022/04/12 13:04:51;;;;;;;6.68;3.40;;;;;;;;;;5042246;28;20058;-74
2022/04/12 13:07:17;;;;;;;6.97;3.45;;;;;;;;;;5050902;28;20032;-75
2022/04/12 13:09:45;;;;;;;5.47;3.17;;;;;;;;;;5035333;28;20470;-75
2022/04/12 13:12:12;;;;;;;5.63;2.95;;;;;;;;;;5043159;28;20104;-74
2022/04/12 13:14:38;;;;;;;6.70;2.80;;;;;;;;;;5037417;28;20482;-74
2022/04/12 13:17:11;;;;;;;6.63;2.80;;;;;;;;;;5033407;28;20037;-74
2022/04/12 13:19:38;;;;;;;7.03;2.67;;;;;;;;;;5047616;28;20032;-74
2022/04/12 13:22:05;;;;;;;5.30;2.65;;;;;;;;;;5037240;28;20028;-74
2022/04/12 13:24:35;;;;;;;6.40;2.45;;;;;;;;;;5040716;28;20033;-75
2022/04/12 13:27:02;;;;;;;5.30;2.30;;;;;;;;;;5044325;28;20025;-75
2022/04/12 13:29:28;;;;;;;7.20;2.20;;;;;;;;;;5048596;28;20072;-75
2022/04/12 13:31:57;;;;;;;6.18;2.15;;;;;;;;;;5035558;28;20032;-75
2022/04/12 13:34:23;;;;;;;4.47;1.90;;;;;;;;;;5044067;28;20033;-74
2022/04/12 13:36:49;;;;;;;4.53;2.30;;;;;;;;;;5049552;28;20512;-75
2022/04/12 13:39:18;;;;;;;3.47;1.85;;;;;;;;;;5030941;28;20040;-74
2022/04/12 13:41:44;;;;;;;3.13;1.80;;;;;;;;;;5050227;28;20478;-75
2022/04/12 13:44:13;;;;;;;8.73;2.58;;;;;;;;;;5050875;28;20032;-74
2022/04/12 13:46:42;;;;;;;5.28;2.40;;;;;;;;;;5032071;28;20044;-75
2022/04/12 13:49:11;;;;;;;4.43;2.20;;;;;;;;;;5050670;28;20052;-74
2022/04/12 13:51:38;;;;;;;4.78;2.38;;;;;;;;;;5051217;28;20439;-74
2022/04/12 13:54:03;;;;;;;5.13;2.33;;;;;;;;;;5050778;28;20033;-73
2022/04/12 13:56:29;;;;;;;4.60;2.20;;;;;;;;;;5049511;28;20500;-74
2022/04/12 13:58:56;;;;;;;8.07;2.50;;;;;;;;;;5047574;28;20100;-75
2022/04/12 14:01:22;;;;;;;3.85;1.90;;;;;;;;;;5044545;28;20032;-74
2022/04/12 14:03:48;;;;;;;5.25;1.83;;;;;;;;;;5041774;28;20415;-75
2022/04/12 14:06:15;;;;;;;5.28;1.90;;;;;;;;;;5032226;28;20048;-74
2022/04/12 14:08:41;;;;;;;6.97;1.80;;;;;;;;;;5041529;28;20034;-75
2022/04/12 14:11:07;;;;;;;6.13;2.30;;;;;;;;;;5015979;28;20037;-75
2022/04/12 14:13:34;;;;;;;4.45;1.60;;;;;;;;;;5030660;28;20036;-75
2022/04/12 14:16:00;;;;;;;3.65;1.88;;;;;;;;;;5041033;28;20434;-74
2022/04/12 14:18:26;;;;;;;5.25;2.03;;;;;;;;;;5044809;28;20036;-75
2022/04/12 14:20:53;;;;;;;6.65;1.80;;;;;;;;;;5050688;28;20098;-75
2022/04/12 14:23:19;;;;;;;5.18;1.90;;;;;;;;;;5050627;28;20025;-74
2022/04/12 14:25:45;;;;;;;3.05;1.73;;;;;;;;;;5050076;28;20036;-72
2022/04/12 14:28:11;;;;;;;2.90;1.60;;;;;;;;;;5041561;28;20056;-73
2022/04/12 14:30:38;;;;;;;5.40;1.60;;;;;;;;;;5047966;28;20446;-74
2022/04/12 14:33:05;;;;;;;4.55;1.75;;;;;;;;;;5047471;28;20033;-73
2022/04/12 14:35:32;;;;;;;3.90;1.88;;;;;;;;;;5028959;28;20045;-73
2022/04/12 14:37:59;;;;;;;5.07;1.98;;;;;;;;;;5047093;28;20603;-74
2022/04/12 14:40:25;;;;;;;3.35;1.85;;;;;;;;;;5043203;28;20039;-73
2022/04/12 14:42:51;;;;;;;5.53;1.88;;;;;;;;;;5036395;28;20030;-73
2022/04/12 14:45:17;;;;;;;4.10;1.80;;;;;;;;;;5036491;28;20021;-73